Time;durP1;ratioP1;P1;durP2;ratioP2;P2;SDS_P1;SDS_P2;PMS_P1;PMS_P2;Temp;Humidity;BMP_temperature;BMP_pressure;BME280_temperature;BME280_humidity;BME280_pressure;Samples;Min_cycle;Max_cycle;Signal;HPM_P1;HPM_P2
2024/02/22 00:00:45;;;;;;;;;;;5.90;99.90;;;;;;5028815;28;19909;-78
2024/02/22 00:03:10;;;;;;;;;;;5.80;99.90;;;;;;5005435;28;19916;-78
2024/02/22 00:05:36;;;;;;;;;;;5.80;99.90;;;;;;5007087;28;19915;-78
2024/02/22 00:08:02;;;;;;;;;;;5.70;99.90;;;;;;5026719;28;19992;-79
2024/02/22 00:10:29;;;;;;;;;;;5.90;99.90;;;;;;5005183;28;19956;-77
2024/02/22 00:12:55;;;;;;;;;;;5.80;99.90;;;;;;5000151;28;19918;-78
2024/02/22 00:15:20;;;;;;;;;;;5.80;99.90;;;;;;5005297;28;19909;-77
2024/02/22 00:17:46;;;;;;;;;;;5.60;99.90;;;;;;5019255;28;19920;-78
2024/02/22 00:20:13;;;;;;;;;;;5.60;99.90;;;;;;4997817;28;19910;-77
2024/02/22 00:22:39;;;;;;;;;;;5.40;99.90;;;;;;4998068;28;19917;-78
2024/02/22 00:25:05;;;;;;;;;;;5.40;99.90;;;;;;4997569;28;20468;-78
2024/02/22 00:27:31;;;;;;;;;;;5.30;99.90;;;;;;5015237;28;19955;-78
2024/02/22 00:29:56;;;;;;;;;;;5.20;99.90;;;;;;5014846;28;19951;-78
2024/02/22 00:32:22;;;;;;;;;;;5.20;99.90;;;;;;4997193;28;19905;-77
2024/02/22 00:34:47;;;;;;;;;;;5.30;99.90;;;;;;5014993;28;19906;-76
2024/02/22 00:37:13;;;;;;;;;;;5.10;99.90;;;;;;5014729;28;20013;-77
2024/02/22 00:39:40;;;;;;;;;;;5.10;99.90;;;;;;4996503;28;19937;-77
2024/02/22 00:42:05;;;;;;;;;;;5.10;99.90;;;;;;4996519;28;19905;-78
2024/02/22 00:44:31;;;;;;;;;;;5.00;99.90;;;;;;5014403;28;20374;-78
2024/02/22 00:46:56;;;;;;;;;;;4.90;99.90;;;;;;5014027;28;19905;-77
2024/02/22 00:49:22;;;;;;;;;;;4.90;99.90;;;;;;4996425;28;19909;-77
2024/02/22 00:51:48;;;;;;;;;;;4.80;99.90;;;;;;5014076;28;19905;-77
2024/02/22 00:54:13;;;;;;;;;;;4.70;99.90;;;;;;5014247;28;19909;-77
2024/02/22 00:56:39;;;;;;;;;;;4.60;99.90;;;;;;5014428;28;19992;-77
2024/02/22 00:59:05;;;;;;;;;;;4.60;99.90;;;;;;5014134;28;19921;-77
2024/02/22 01:01:31;;;;;;;;;;;4.60;99.90;;;;;;4996795;28;19917;-77
2024/02/22 01:03:57;;;;;;;;;;;4.60;99.90;;;;;;5013996;28;19910;-77
2024/02/22 01:06:23;;;;;;;;;;;4.50;99.90;;;;;;4996173;28;19916;-77
2024/02/22 01:08:49;;;;;;;;;;;4.40;99.90;;;;;;5013970;28;20313;-78
2024/02/22 01:11:15;;;;;;;;;;;4.40;99.90;;;;;;4995929;28;19915;-77
2024/02/22 01:13:40;;;;;;;;;;;4.40;99.90;;;;;;4996680;28;20008;-77
2024/02/22 01:16:06;;;;;;;;;;;4.40;99.90;;;;;;4996603;28;19913;-78
2024/02/22 01:18:31;;;;;;;;;;;4.50;99.90;;;;;;5014099;28;20301;-77
2024/02/22 01:20:57;;;;;;;;;;;4.40;99.90;;;;;;5014266;28;19910;-78
2024/02/22 01:23:23;;;;;;;;;;;4.50;99.90;;;;;;4997416;28;19916;-77
2024/02/22 01:25:49;;;;;;;;;;;4.50;99.90;;;;;;5014908;28;19996;-78
2024/02/22 01:28:14;;;;;;;;;;;4.60;99.90;;;;;;4998912;28;20003;-78
2024/02/22 01:30:40;;;;;;;;;;;5.30;99.90;;;;;;4999920;28;20241;-77
2024/02/22 01:33:07;;;;;;;;;;;5.00;99.90;;;;;;4996771;28;19909;-78
2024/02/22 01:35:33;;;;;;;;;;;5.00;99.90;;;;;;5014569;28;20440;-77
2024/02/22 01:37:59;;;;;;;;;;;5.00;99.90;;;;;;5014212;28;19917;-78
2024/02/22 01:40:24;;;;;;;;;;;5.10;99.90;;;;;;5014005;28;19913;-77
2024/02/22 01:42:50;;;;;;;;;;;5.10;99.90;;;;;;5014389;28;19910;-78
2024/02/22 01:45:15;;;;;;;;;;;5.10;99.90;;;;;;4996211;28;19960;-78
2024/02/22 01:47:41;;;;;;;;;;;5.00;99.90;;;;;;4997025;28;19940;-77
2024/02/22 01:50:08;;;;;;;;;;;4.90;99.90;;;;;;4996438;28;20293;-77
2024/02/22 01:52:34;;;;;;;;;;;4.80;99.90;;;;;;4996745;28;19912;-77
2024/02/22 01:55:00;;;;;;;;;;;4.80;99.90;;;;;;4995803;28;19913;-78
2024/02/22 01:57:25;;;;;;;;;;;4.80;99.90;;;;;;5013789;28;20020;-77
2024/02/22 01:59:51;;;;;;;;;;;4.70;99.90;;;;;;4996307;28;19917;-78
2024/02/22 02:02:16;;;;;;;;;;;4.60;99.90;;;;;;4996677;28;19952;-77
2024/02/22 02:04:42;;;;;;;;;;;4.50;99.90;;;;;;4995658;28;19909;-77
2024/02/22 02:07:08;;;;;;;;;;;4.60;99.90;;;;;;4996153;28;20329;-77
2024/02/22 02:09:34;;;;;;;;;;;4.60;99.90;;;;;;4995494;28;19940;-78
2024/02/22 02:11:59;;;;;;;;;;;4.60;99.90;;;;;;4995735;28;19925;-77
2024/02/22 02:14:26;;;;;;;;;;;4.50;99.90;;;;;;4995847;28;19937;-76
2024/02/22 02:16:51;;;;;;;;;;;4.70;99.90;;;;;;4996659;28;19910;-78
2024/02/22 02:19:19;;;;;;;;;;;4.70;99.90;;;;;;4996124;28;20279;-77
2024/02/22 02:21:44;;;;;;;;;;;4.60;99.90;;;;;;4996765;28;19912;-79
2024/02/22 02:24:26;;;;;;;;;;;4.50;99.90;;;;;;5015911;28;19905;-80
2024/02/22 02:26:53;;;;;;;;;;;4.40;99.90;;;;;;4998993;28;19949;-79
2024/02/22 02:29:18;;;;;;;;;;;4.40;99.90;;;;;;5000723;28;19910;-79
2024/02/22 02:31:44;;;;;;;;;;;4.40;99.90;;;;;;5001621;28;19905;-80
2024/02/22 02:34:10;;;;;;;;;;;4.30;99.90;;;;;;5002389;28;19910;-78
2024/02/22 02:36:35;;;;;;;;;;;4.40;99.90;;;;;;5019351;28;20548;-79
2024/02/22 02:39:01;;;;;;;;;;;4.30;99.90;;;;;;5002915;28;20038;-79
2024/02/22 02:41:29;;;;;;;;;;;4.40;99.90;;;;;;5019170;28;20328;-79
2024/02/22 02:43:54;;;;;;;;;;;4.30;99.90;;;;;;5002750;28;19916;-79
2024/02/22 02:46:19;;;;;;;;;;;4.40;99.90;;;;;;5002134;28;19909;-80
2024/02/22 02:48:45;;;;;;;;;;;4.30;99.90;;;;;;5003102;28;19910;-79
2024/02/22 02:51:11;;;;;;;;;;;4.30;99.90;;;;;;5002507;28;20401;-78
2024/02/22 02:53:36;;;;;;;;;;;4.30;99.90;;;;;;5022458;28;19910;-77
2024/02/22 02:56:02;;;;;;;;;;;4.30;99.90;;;;;;5024690;28;19913;-78
2024/02/22 02:58:27;;;;;;;;;;;4.30;99.90;;;;;;5023640;28;19924;-78
2024/02/22 03:00:53;;;;;;;;;;;4.30;99.90;;;;;;5002744;28;20008;-77
2024/02/22 03:03:20;;;;;;;;;;;4.20;99.90;;;;;;5000723;28;19956;-77
2024/02/22 03:05:45;;;;;;;;;;;4.20;99.90;;;;;;5018575;28;19909;-77
2024/02/22 03:08:11;;;;;;;;;;;4.10;99.90;;;;;;5000300;28;19905;-77
2024/02/22 03:10:36;;;;;;;;;;;4.00;99.90;;;;;;5018155;28;20382;-78
2024/02/22 03:13:04;;;;;;;;;;;3.90;99.90;;;;;;5020044;28;19961;-77
2024/02/22 03:15:30;;;;;;;;;;;3.90;99.90;;;;;;5009196;28;19909;-77
2024/02/22 03:17:56;;;;;;;;;;;4.00;99.90;;;;;;5023670;28;19913;-77
2024/02/22 03:20:23;;;;;;;;;;;4.00;99.90;;;;;;5022186;28;20299;-78
2024/02/22 03:22:48;;;;;;;;;;;3.90;99.90;;;;;;5026917;28;19949;-78
2024/02/22 03:25:14;;;;;;;;;;;3.80;99.90;;;;;;5024566;28;19906;-78
2024/02/22 03:27:39;;;;;;;;;;;3.80;99.90;;;;;;4999605;28;19913;-77
2024/02/22 03:30:05;;;;;;;;;;;3.80;99.90;;;;;;5017455;28;19906;-77
2024/02/22 03:32:31;;;;;;;;;;;3.80;99.90;;;;;;4998757;28;19909;-77
2024/02/22 03:34:58;;;;;;;;;;;3.70;99.90;;;;;;5017012;28;19915;-76
2024/02/22 03:37:23;;;;;;;;;;;3.80;99.90;;;;;;5016311;28;19994;-77
2024/02/22 03:39:49;;;;;;;;;;;3.70;99.90;;;;;;5001726;28;20445;-77
2024/02/22 03:42:18;;;;;;;;;;;3.70;99.90;;;;;;5017239;28;19991;-77
2024/02/22 03:44:43;;;;;;;;;;;3.50;99.90;;;;;;4998525;28;20433;-77
2024/02/22 03:47:09;;;;;;;;;;;3.60;99.90;;;;;;5015595;28;19960;-77
2024/02/22 03:49:35;;;;;;;;;;;3.70;99.90;;;;;;4997506;28;20374;-78
2024/02/22 03:52:01;;;;;;;;;;;3.80;99.90;;;;;;4996990;28;20381;-77
2024/02/22 03:54:26;;;;;;;;;;;3.90;99.90;;;;;;4997625;28;19909;-78
2024/02/22 03:56:52;;;;;;;;;;;3.90;99.90;;;;;;5014475;28;20330;-77
2024/02/22 03:59:17;;;;;;;;;;;3.90;99.90;;;;;;5014056;28;20418;-77
2024/02/22 04:01:43;;;;;;;;;;;3.80;99.90;;;;;;4996453;28;19905;-76
2024/02/22 04:04:09;;;;;;;;;;;3.80;99.90;;;;;;4997129;28;19913;-77
2024/02/22 04:06:34;;;;;;;;;;;3.90;99.90;;;;;;5015398;28;20382;-77
2024/02/22 04:09:00;;;;;;;;;;;3.90;99.90;;;;;;4997722;28;20365;-77
2024/02/22 04:11:27;;;;;;;;;;;3.90;99.90;;;;;;5015189;28;19915;-77
2024/02/22 04:13:53;;;;;;;;;;;4.00;99.90;;;;;;4997754;28;20004;-77
2024/02/22 04:16:18;;;;;;;;;;;4.10;99.90;;;;;;4997432;28;19913;-77
2024/02/22 04:18:44;;;;;;;;;;;4.20;99.90;;;;;;4997013;28;19932;-77
2024/02/22 04:21:09;;;;;;;;;;;4.30;99.90;;;;;;4997523;28;19909;-78
2024/02/22 04:23:35;;;;;;;;;;;4.40;99.90;;;;;;5015525;28;19920;-77
2024/02/22 04:26:02;;;;;;;;;;;4.40;99.90;;;;;;5014376;28;19952;-77
2024/02/22 04:28:27;;;;;;;;;;;4.40;99.90;;;;;;4997133;28;19940;-77
2024/02/22 04:30:53;;;;;;;;;;;4.60;99.90;;;;;;4997392;28;19910;-77
2024/02/22 04:33:18;;;;;;;;;;;4.60;99.90;;;;;;4996955;28;19909;-77
2024/02/22 04:35:44;;;;;;;;;;;4.70;99.90;;;;;;5016645;28;19909;-78
2024/02/22 04:38:10;;;;;;;;;;;4.40;99.90;;;;;;4998331;28;19914;-77
2024/02/22 04:40:36;;;;;;;;;;;4.40;99.90;;;;;;5015712;28;20390;-78
2024/02/22 04:43:02;;;;;;;;;;;4.50;99.90;;;;;;5015964;28;19906;-77
2024/02/22 04:45:28;;;;;;;;;;;4.50;99.90;;;;;;4997944;28;19913;-78
2024/02/22 04:47:53;;;;;;;;;;;4.40;99.90;;;;;;5015906;28;20408;-78
2024/02/22 04:50:19;;;;;;;;;;;4.60;99.90;;;;;;4997382;28;20397;-78
2024/02/22 04:52:44;;;;;;;;;;;4.60;99.90;;;;;;4998603;28;19905;-78
2024/02/22 04:55:10;;;;;;;;;;;4.70;99.90;;;;;;4997819;28;19913;-78
2024/02/22 04:57:36;;;;;;;;;;;4.70;99.90;;;;;;4997962;28;20479;-77
2024/02/22 05:00:04;;;;;;;;;;;4.70;99.90;;;;;;5016960;28;19913;-78
2024/02/22 05:02:29;;;;;;;;;;;4.70;99.90;;;;;;4997911;28;19913;-78
2024/02/22 05:04:55;;;;;;;;;;;4.70;99.90;;;;;;5016317;28;19913;-78
2024/02/22 05:07:21;;;;;;;;;;;4.60;99.90;;;;;;5015744;28;19905;-78
2024/02/22 05:09:47;;;;;;;;;;;4.60;99.90;;;;;;4998943;28;19905;-78
2024/02/22 05:12:12;;;;;;;;;;;4.50;99.90;;;;;;5016799;28;19996;-78
2024/02/22 05:14:38;;;;;;;;;;;4.50;99.90;;;;;;5016037;28;19921;-78
2024/02/22 05:17:04;;;;;;;;;;;4.60;99.90;;;;;;5016874;28;19932;-77
2024/02/22 05:19:29;;;;;;;;;;;4.60;99.90;;;;;;4999891;28;19922;-78
2024/02/22 05:21:55;;;;;;;;;;;4.70;99.90;;;;;;5000834;28;19909;-77
2024/02/22 05:24:21;;;;;;;;;;;4.70;99.90;;;;;;5018664;28;20386;-78
2024/02/22 05:26:47;;;;;;;;;;;4.80;99.90;;;;;;4998936;28;19945;-78
2024/02/22 05:29:14;;;;;;;;;;;4.90;99.90;;;;;;5015672;28;19936;-77
2024/02/22 05:31:41;;;;;;;;;;;5.00;99.90;;;;;;4997102;28;19975;-77
2024/02/22 05:34:08;;;;;;;;;;;5.10;99.90;;;;;;4999720;28;19913;-77
2024/02/22 05:36:33;;;;;;;;;;;5.10;99.90;;;;;;5000070;28;19905;-77
2024/02/22 05:39:01;;;;;;;;;;;5.20;99.90;;;;;;5013321;28;19965;-76
2024/02/22 05:41:27;;;;;;;;;;;5.20;99.90;;;;;;4997655;28;19952;-77
2024/02/22 05:43:54;;;;;;;;;;;5.30;99.90;;;;;;5017283;28;19909;-78
2024/02/22 05:46:20;;;;;;;;;;;5.30;99.90;;;;;;5010409;28;19959;-77
2024/02/22 05:48:45;;;;;;;;;;;5.40;99.90;;;;;;5013525;28;19992;-78
2024/02/22 05:51:11;;;;;;;;;;;5.40;99.90;;;;;;5000272;28;19958;-77
2024/02/22 05:53:37;;;;;;;;;;;5.40;99.90;;;;;;5016955;28;19964;-78
2024/02/22 05:56:03;;;;;;;;;;;5.60;99.90;;;;;;5016630;28;19916;-78
2024/02/22 05:58:32;;;;;;;;;;;5.50;99.90;;;;;;5018392;28;19925;-78
2024/02/22 06:00:58;;;;;;;;;;;5.50;99.90;;;;;;5000984;28;19913;-78
2024/02/22 06:03:23;;;;;;;;;;;5.60;99.90;;;;;;5002822;28;19906;-78
2024/02/22 06:05:49;;;;;;;;;;;5.50;99.90;;;;;;5020527;28;19913;-78
2024/02/22 06:08:19;;;;;;;;;;;5.60;99.90;;;;;;5023141;28;19905;-77
2024/02/22 06:10:45;;;;;;;;;;;5.70;99.90;;;;;;5023395;28;19963;-78
2024/02/22 06:13:10;;;;;;;;;;;5.70;99.90;;;;;;5004381;28;19937;-77
2024/02/22 06:15:36;;;;;;;;;;;5.80;99.90;;;;;;5005030;28;20004;-78
2024/02/22 06:18:03;;;;;;;;;;;5.70;99.90;;;;;;5004169;28;20374;-78
2024/02/22 06:20:31;;;;;;;;;;;5.70;99.90;;;;;;5008830;28;20390;-79
2024/02/22 06:23:00;;;;;;;;;;;5.80;99.90;;;;;;5008676;28;19909;-78
2024/02/22 06:25:28;;;;;;;;;;;5.90;99.90;;;;;;5008388;28;19906;-77
2024/02/22 06:27:54;;;;;;;;;;;5.90;99.90;;;;;;5033721;28;19964;-78
2024/02/22 06:30:19;;;;;;;;;;;5.90;99.90;;;;;;5019853;28;19914;-79
2024/02/22 06:32:45;;;;;;;;;;;5.90;99.90;;;;;;5009848;28;20004;-78
2024/02/22 06:35:10;;;;;;;;;;;6.00;99.90;;;;;;5033875;28;19912;-79
2024/02/22 06:37:36;;;;;;;;;;;6.20;99.90;;;;;;5034249;28;19940;-79
2024/02/22 06:40:02;;;;;;;;;;;6.00;99.90;;;;;;5029301;28;19913;-79
2024/02/22 06:42:27;;;;;;;;;;;6.00;99.90;;;;;;5023647;28;19920;-79
2024/02/22 06:44:55;;;;;;;;;;;6.10;99.90;;;;;;5005328;28;20305;-78
2024/02/22 06:47:22;;;;;;;;;;;6.10;99.90;;;;;;5007254;28;20001;-78
2024/02/22 06:49:48;;;;;;;;;;;6.20;99.90;;;;;;5023208;28;20441;-79
2024/02/22 06:52:15;;;;;;;;;;;6.20;99.90;;;;;;5025301;28;19931;-78
2024/02/22 06:54:40;;;;;;;;;;;6.20;99.90;;;;;;5005209;28;20338;-78
2024/02/22 06:57:06;;;;;;;;;;;6.20;99.90;;;;;;5008014;28;19909;-79
2024/02/22 06:59:32;;;;;;;;;;;6.20;99.90;;;;;;5003888;28;19913;-77
2024/02/22 07:01:57;;;;;;;;;;;6.30;99.90;;;;;;5006507;28;19906;-79
2024/02/22 07:04:23;;;;;;;;;;;6.30;99.90;;;;;;5021053;28;19913;-78
2024/02/22 07:06:48;;;;;;;;;;;6.30;99.90;;;;;;5004823;28;19906;-78
2024/02/22 07:09:14;;;;;;;;;;;6.30;99.90;;;;;;5024263;28;19905;-79
2024/02/22 07:11:39;;;;;;;;;;;6.30;99.90;;;;;;5007158;28;19913;-78
2024/02/22 07:14:05;;;;;;;;;;;6.30;99.90;;;;;;5021884;28;19963;-77
2024/02/22 07:16:31;;;;;;;;;;;6.40;99.90;;;;;;5021430;28;20324;-78
2024/02/22 07:18:57;;;;;;;;;;;6.40;99.90;;;;;;5003004;28;19925;-79
2024/02/22 07:21:23;;;;;;;;;;;6.50;99.90;;;;;;5024864;28;19889;-79
2024/02/22 07:23:49;;;;;;;;;;;6.70;99.90;;;;;;5006852;28;19916;-78
2024/02/22 07:26:15;;;;;;;;;;;6.50;99.90;;;;;;5003876;28;19905;-78
2024/02/22 07:28:41;;;;;;;;;;;6.60;99.90;;;;;;5005608;28;19917;-78
2024/02/22 07:31:06;;;;;;;;;;;6.60;99.90;;;;;;4999319;28;20374;-77
2024/02/22 07:33:32;;;;;;;;;;;6.60;99.90;;;;;;5000882;28;19909;-78
2024/02/22 07:35:58;;;;;;;;;;;6.70;99.90;;;;;;5000711;28;19992;-78
2024/02/22 07:38:24;;;;;;;;;;;6.80;99.90;;;;;;4999119;28;19917;-79
2024/02/22 07:40:51;;;;;;;;;;;6.90;99.90;;;;;;5019698;28;19917;-78
2024/02/22 07:43:17;;;;;;;;;;;7.00;99.90;;;;;;5001249;28;19917;-79
2024/02/22 07:45:43;;;;;;;;;;;7.00;99.90;;;;;;5001529;28;19905;-78
2024/02/22 07:48:09;;;;;;;;;;;7.10;99.90;;;;;;5007700;28;19967;-79
2024/02/22 07:50:35;;;;;;;;;;;7.20;99.90;;;;;;5004234;28;19920;-79
2024/02/22 07:53:00;;;;;;;;;;;7.10;99.90;;;;;;5008065;28;19912;-78
2024/02/22 07:55:26;;;;;;;;;;;7.20;99.90;;;;;;5006898;28;19940;-79
2024/02/22 07:57:53;;;;;;;;;;;7.20;99.90;;;;;;5022737;28;19909;-77
2024/02/22 08:00:18;;;;;;;;;;;7.30;99.90;;;;;;5004078;28;19916;-78
2024/02/22 08:02:44;;;;;;;;;;;7.40;99.90;;;;;;5011045;28;20282;-78
2024/02/22 08:05:11;;;;;;;;;;;7.50;99.90;;;;;;5005449;28;19910;-79
2024/02/22 08:07:37;;;;;;;;;;;7.50;99.90;;;;;;5022842;28;19906;-78
2024/02/22 08:10:03;;;;;;;;;;;7.60;99.90;;;;;;5005354;28;19932;-79
2024/02/22 08:12:29;;;;;;;;;;;7.70;99.90;;;;;;5007731;28;19913;-79
2024/02/22 08:14:54;;;;;;;;;;;7.70;99.90;;;;;;5006775;28;19973;-78
2024/02/22 08:17:23;;;;;;;;;;;7.90;99.90;;;;;;5020092;28;19932;-78
2024/02/22 08:19:48;;;;;;;;;;;8.20;99.90;;;;;;5019792;28;20027;-78
2024/02/22 08:22:17;;;;;;;;;;;8.30;99.90;;;;;;5021907;28;20016;-78
2024/02/22 08:24:43;;;;;;;;;;;8.30;99.90;;;;;;5001374;28;19912;-78
2024/02/22 08:27:10;;;;;;;;;;;8.40;99.90;;;;;;5004272;28;19905;-79
2024/02/22 08:29:36;;;;;;;;;;;8.60;99.90;;;;;;4985870;28;19913;-76
2024/02/22 08:32:02;;;;;;;;;;;8.70;98.80;;;;;;5020399;28;19905;-78
2024/02/22 08:34:28;;;;;;;;;;;8.70;98.90;;;;;;5000823;28;19906;-77
2024/02/22 08:36:53;;;;;;;;;;;8.50;99.40;;;;;;5002894;28;19928;-79
2024/02/22 08:39:19;;;;;;;;;;;8.50;99.30;;;;;;5005366;28;20520;-78
2024/02/22 08:41:44;;;;;;;;;;;8.40;99.20;;;;;;5004283;28;19909;-79
2024/02/22 08:44:10;;;;;;;;;;;8.50;99.70;;;;;;5005542;28;19996;-79
2024/02/22 08:46:36;;;;;;;;;;;8.60;98.70;;;;;;5005286;28;19909;-78
2024/02/22 08:49:01;;;;;;;;;;;8.70;99.00;;;;;;5003811;28;19905;-79
2024/02/22 08:51:28;;;;;;;;;;;9.00;99.10;;;;;;5024178;28;19906;-78
2024/02/22 08:53:55;;;;;;;;;;;9.40;97.70;;;;;;5003696;28;19909;-78
2024/02/22 08:56:20;;;;;;;;;;;9.70;96.40;;;;;;5006126;28;19976;-79
2024/02/22 08:58:46;;;;;;;;;;;10.10;95.90;;;;;;5004206;28;19969;-77
2024/02/22 09:01:12;;;;;;;;;;;10.50;95.10;;;;;;5019160;28;20334;-77
2024/02/22 09:03:37;;;;;;;;;;;10.80;92.30;;;;;;5004209;28;19916;-78
2024/02/22 09:06:04;;;;;;;;;;;11.00;91.40;;;;;;5023695;28;19928;-78
2024/02/22 09:08:31;;;;;;;;;;;11.10;90.70;;;;;;5003399;28;20443;-78
2024/02/22 09:10:56;;;;;;;;;;;11.10;88.20;;;;;;5024144;28;20050;-79
2024/02/22 09:13:22;;;;;;;;;;;11.10;87.00;;;;;;5021537;28;19941;-78
2024/02/22 09:15:51;;;;;;;;;;;10.90;87.70;;;;;;5022410;28;19905;-77
2024/02/22 09:18:17;;;;;;;;;;;10.60;88.70;;;;;;5022509;28;19982;-78
2024/02/22 09:20:43;;;;;;;;;;;10.50;89.70;;;;;;5024157;28;19956;-79
2024/02/22 09:23:08;;;;;;;;;;;10.30;90.40;;;;;;5003967;28;19905;-79
2024/02/22 09:25:34;;;;;;;;;;;10.20;90.70;;;;;;5005827;28;19968;-77
2024/02/22 09:28:00;;;;;;;;;;;10.20;91.20;;;;;;5003434;28;19914;-79
2024/02/22 09:30:25;;;;;;;;;;;10.00;91.70;;;;;;5006599;28;19996;-78
2024/02/22 09:32:51;;;;;;;;;;;9.90;91.20;;;;;;5024735;28;19905;-78
2024/02/22 09:35:17;;;;;;;;;;;9.80;91.80;;;;;;5003012;28;19933;-78
2024/02/22 09:37:42;;;;;;;;;;;9.80;92.10;;;;;;5001585;28;19909;-79
2024/02/22 09:40:08;;;;;;;;;;;9.90;91.70;;;;;;5008320;28;19964;-78
2024/02/22 09:42:35;;;;;;;;;;;9.90;91.30;;;;;;5026504;28;19905;-78
2024/02/22 09:45:02;;;;;;;;;;;10.10;91.10;;;;;;5027886;28;19908;-78
2024/02/22 09:47:28;;;;;;;;;;;10.10;90.80;;;;;;5014518;28;19916;-78
2024/02/22 09:49:53;;;;;;;;;;;10.30;90.80;;;;;;5027639;28;19905;-78
2024/02/22 09:52:19;;;;;;;;;;;10.40;90.50;;;;;;5010611;28;19977;-78
2024/02/22 09:54:45;;;;;;;;;;;10.40;91.00;;;;;;5032064;28;19912;-78
2024/02/22 09:57:11;;;;;;;;;;;10.40;91.70;;;;;;5013007;28;19920;-77
2024/02/22 09:59:36;;;;;;;;;;;10.40;91.80;;;;;;5003248;28;19967;-79
2024/02/22 10:02:05;;;;;;;;;;;10.40;92.20;;;;;;5022894;28;19912;-78
2024/02/22 10:04:31;;;;;;;;;;;10.40;91.70;;;;;;5021710;28;19913;-77
2024/02/22 10:07:00;;;;;;;;;;;10.40;91.60;;;;;;5005448;28;19906;-78
2024/02/22 10:09:27;;;;;;;;;;;10.30;92.30;;;;;;5023089;28;19912;-78
2024/02/22 10:11:53;;;;;;;;;;;10.50;91.90;;;;;;5004914;28;19909;-78
2024/02/22 10:14:18;;;;;;;;;;;10.50;91.30;;;;;;5006537;28;19965;-77
2024/02/22 10:16:47;;;;;;;;;;;10.70;90.60;;;;;;5023416;28;19905;-77
2024/02/22 10:19:14;;;;;;;;;;;10.80;89.30;;;;;;5003911;28;20441;-78
2024/02/22 10:21:40;;;;;;;;;;;10.90;89.70;;;;;;5004550;28;19920;-78
2024/02/22 10:24:06;;;;;;;;;;;11.00;89.40;;;;;;5004413;28;20452;-77
2024/02/22 10:26:31;;;;;;;;;;;11.10;89.00;;;;;;5003978;28;19932;-78
2024/02/22 10:29:07;;;;;;;;;;;11.10;88.50;;;;;;5002870;28;19996;-79
2024/02/22 10:31:41;;;;;;;;;;;11.00;87.90;;;;;;5021389;28;19905;-78
2024/02/22 10:34:08;;;;;;;;;;;11.00;90.10;;;;;;5022696;28;19916;-78
2024/02/22 10:36:35;;;;;;;;;;;11.00;88.50;;;;;;5004359;28;19905;-77
2024/02/22 10:39:02;;;;;;;;;;;10.90;89.20;;;;;;5022395;28;20012;-78
2024/02/22 10:41:29;;;;;;;;;;;11.10;89.30;;;;;;5023257;28;19964;-80
2024/02/22 10:43:55;;;;;;;;;;;11.10;87.60;;;;;;5005716;28;19912;-80
2024/02/22 10:46:25;;;;;;;;;;;11.10;87.60;;;;;;5005754;28;19905;-78
2024/02/22 10:48:51;;;;;;;;;;;11.00;88.10;;;;;;5006224;28;19912;-80
2024/02/22 10:51:21;;;;;;;;;;;11.10;88.80;;;;;;5021913;28;19910;-79
2024/02/22 10:53:51;;;;;;;;;;;11.10;86.80;;;;;;5005466;28;20301;-78
2024/02/22 10:56:21;;;;;;;;;;;11.10;87.60;;;;;;5005534;28;19912;-78
2024/02/22 10:58:47;;;;;;;;;;;11.00;87.90;;;;;;5006201;28;19975;-79
2024/02/22 11:01:13;;;;;;;;;;;11.10;88.60;;;;;;5020599;28;19910;-78
2024/02/22 11:03:39;;;;;;;;;;;11.10;88.40;;;;;;5003152;28;19976;-80
2024/02/22 11:06:05;;;;;;;;;;;11.10;86.80;;;;;;5023056;28;20378;-78
2024/02/22 11:08:30;;;;;;;;;;;11.20;88.30;;;;;;5001027;28;19905;-79
2024/02/22 11:11:19;;;;;;;;;;;11.00;88.50;;;;;;5007552;28;19905;-79
2024/02/22 11:13:54;;;;;;;;;;;10.90;89.00;;;;;;5005186;28;19924;-79
2024/02/22 11:16:20;;;;;;;;;;;10.90;89.00;;;;;;5005816;28;19914;-79
2024/02/22 11:18:46;;;;;;;;;;;10.90;86.80;;;;;;5001322;28;19916;-79
2024/02/22 11:21:12;;;;;;;;;;;10.80;87.70;;;;;;5005281;28;19945;-79
2024/02/22 11:23:37;;;;;;;;;;;10.80;86.60;;;;;;5005171;28;19934;-78
2024/02/22 11:26:03;;;;;;;;;;;10.90;86.30;;;;;;5005397;28;19915;-79
2024/02/22 11:28:28;;;;;;;;;;;10.90;85.80;;;;;;5005212;28;19952;-79
2024/02/22 11:30:54;;;;;;;;;;;11.00;87.00;;;;;;5003944;28;19909;-79
2024/02/22 11:33:22;;;;;;;;;;;11.20;87.40;;;;;;5021906;28;19913;-78
2024/02/22 11:35:52;;;;;;;;;;;11.40;85.50;;;;;;5023622;28;19918;-79
2024/02/22 11:38:19;;;;;;;;;;;11.50;85.60;;;;;;5022743;28;19920;-80
2024/02/22 11:40:45;;;;;;;;;;;11.70;84.60;;;;;;5005019;28;19909;-78
2024/02/22 11:43:10;;;;;;;;;;;11.90;80.70;;;;;;5023580;28;20479;-80
2024/02/22 11:45:36;;;;;;;;;;;12.10;81.80;;;;;;5011377;28;19913;-79
2024/02/22 11:48:03;;;;;;;;;;;12.30;80.50;;;;;;5012108;28;20247;-80
2024/02/22 11:50:30;;;;;;;;;;;12.50;80.20;;;;;;5008234;28;19960;-80
2024/02/22 11:52:58;;;;;;;;;;;12.60;80.50;;;;;;5030260;28;19905;-78
2024/02/22 11:55:24;;;;;;;;;;;12.60;77.70;;;;;;5012380;28;19905;-78
2024/02/22 11:57:50;;;;;;;;;;;12.50;78.50;;;;;;5009277;28;19910;-80
2024/02/22 12:00:15;;;;;;;;;;;12.50;78.10;;;;;;5009991;28;19914;-79
2024/02/22 12:02:41;;;;;;;;;;;12.50;77.90;;;;;;5025488;28;19936;-79
2024/02/22 12:05:09;;;;;;;;;;;12.50;77.30;;;;;;5009690;28;19944;-80
2024/02/22 12:07:36;;;;;;;;;;;12.40;78.20;;;;;;5011029;28;19966;-81
2024/02/22 12:10:01;;;;;;;;;;;12.40;79.20;;;;;;5011896;28;19912;-80
2024/02/22 12:12:27;;;;;;;;;;;12.40;78.20;;;;;;5011099;28;19918;-79
2024/02/22 12:14:56;;;;;;;;;;;12.40;78.50;;;;;;5008491;28;19956;-79
2024/02/22 12:17:30;;;;;;;;;;;12.40;77.80;;;;;;5008208;28;19909;-80
2024/02/22 12:19:55;;;;;;;;;;;12.30;77.80;;;;;;5007075;28;20686;-79
2024/02/22 12:22:21;;;;;;;;;;;12.30;78.00;;;;;;5026406;28;19910;-80
2024/02/22 12:24:48;;;;;;;;;;;12.20;78.00;;;;;;5025134;28;19951;-79
2024/02/22 12:27:14;;;;;;;;;;;12.10;79.20;;;;;;5029734;28;19905;-78
2024/02/22 12:29:40;;;;;;;;;;;12.30;80.40;;;;;;5025923;28;19912;-79
2024/02/22 12:32:06;;;;;;;;;;;12.40;79.10;;;;;;5026702;28;19916;-79
2024/02/22 12:34:34;;;;;;;;;;;12.50;78.90;;;;;;5006774;28;19905;-78
2024/02/22 12:36:59;;;;;;;;;;;12.40;78.50;;;;;;4999716;28;20397;-79
2024/02/22 12:39:26;;;;;;;;;;;12.40;77.50;;;;;;5008623;28;19913;-78
2024/02/22 12:41:51;;;;;;;;;;;12.40;78.00;;;;;;5028345;28;19932;-78
2024/02/22 12:44:17;;;;;;;;;;;12.40;77.70;;;;;;5028059;28;19905;-79
2024/02/22 12:46:42;;;;;;;;;;;12.40;78.40;;;;;;5010749;28;19937;-79
2024/02/22 12:49:08;;;;;;;;;;;12.40;78.80;;;;;;5009319;28;19980;-79
2024/02/22 12:51:33;;;;;;;;;;;12.50;78.20;;;;;;5006584;28;19905;-79
2024/02/22 12:53:59;;;;;;;;;;;12.50;78.20;;;;;;5006010;28;19977;-79
2024/02/22 12:56:24;;;;;;;;;;;12.50;77.90;;;;;;5004379;28;19906;-79
2024/02/22 12:58:50;;;;;;;;;;;12.40;78.40;;;;;;5004625;28;19921;-76
2024/02/22 13:01:15;;;;;;;;;;;12.50;78.60;;;;;;5021447;28;20393;-78
2024/02/22 13:03:41;;;;;;;;;;;12.60;78.60;;;;;;5006349;28;19951;-78
2024/02/22 13:06:07;;;;;;;;;;;12.60;78.50;;;;;;5012818;28;19896;-78
2024/02/22 13:08:32;;;;;;;;;;;12.50;78.90;;;;;;5030524;28;19913;-78
2024/02/22 13:10:58;;;;;;;;;;;12.40;80.20;;;;;;5024256;28;19928;-78
2024/02/22 13:13:24;;;;;;;;;;;12.50;79.60;;;;;;5012493;28;19914;-78
2024/02/22 13:15:50;;;;;;;;;;;12.40;80.20;;;;;;5010187;28;19968;-78
2024/02/22 13:18:16;;;;;;;;;;;12.60;79.90;;;;;;5005304;28;19909;-77
2024/02/22 13:20:42;;;;;;;;;;;12.50;80.40;;;;;;5006041;28;19913;-77
2024/02/22 13:23:07;;;;;;;;;;;12.50;81.60;;;;;;5020242;28;19905;-77
2024/02/22 13:25:33;;;;;;;;;;;12.60;81.10;;;;;;5020993;28;19906;-78
2024/02/22 13:27:59;;;;;;;;;;;12.70;80.50;;;;;;5022955;28;19910;-77
2024/02/22 13:30:25;;;;;;;;;;;12.80;80.00;;;;;;5020974;28;19913;-79
2024/02/22 13:32:50;;;;;;;;;;;12.80;79.00;;;;;;5004773;28;19913;-77
2024/02/22 13:35:16;;;;;;;;;;;12.80;78.50;;;;;;5028559;28;19910;-80
2024/02/22 13:37:42;;;;;;;;;;;12.70;78.50;;;;;;5010046;28;19906;-79
2024/02/22 13:40:09;;;;;;;;;;;12.70;78.70;;;;;;5011804;28;19910;-79
2024/02/22 13:42:35;;;;;;;;;;;12.60;77.90;;;;;;5009345;28;19972;-79
2024/02/22 13:45:01;;;;;;;;;;;12.50;78.00;;;;;;5008737;28;19912;-78
2024/02/22 13:47:27;;;;;;;;;;;12.50;78.70;;;;;;5008963;28;19964;-79
2024/02/22 13:49:53;;;;;;;;;;;12.40;78.20;;;;;;5026722;28;19906;-78
2024/02/22 13:52:19;;;;;;;;;;;12.40;78.30;;;;;;5010142;28;19928;-80
2024/02/22 13:54:45;;;;;;;;;;;11.90;78.50;;;;;;5010278;28;19905;-79
2024/02/22 13:57:14;;;;;;;;;;;12.30;78.80;;;;;;5009488;28;20472;-79
2024/02/22 13:59:40;;;;;;;;;;;12.20;79.10;;;;;;5006068;28;19913;-78
2024/02/22 14:02:05;;;;;;;;;;;12.10;79.30;;;;;;5007869;28;19909;-77
2024/02/22 14:04:31;;;;;;;;;;;12.00;80.20;;;;;;5025291;28;19912;-79
2024/02/22 14:06:56;;;;;;;;;;;12.00;80.80;;;;;;5009230;28;19905;-78
2024/02/22 14:09:22;;;;;;;;;;;11.90;81.00;;;;;;5026383;28;19916;-79
2024/02/22 14:11:47;;;;;;;;;;;11.80;81.90;;;;;;5007144;28;19909;-78
2024/02/22 14:14:13;;;;;;;;;;;11.70;82.50;;;;;;5023715;28;19917;-79
2024/02/22 14:16:40;;;;;;;;;;;11.60;83.10;;;;;;5023092;28;19918;-78
2024/02/22 14:19:06;;;;;;;;;;;11.60;83.60;;;;;;5001684;28;20557;-78